Time;durP1;ratioP1;P1;durP2;ratioP2;P2;SDS_P1;SDS_P2;PMS_P1;PMS_P2;Temp;Humidity;BMP_temperature;BMP_pressure;BME280_temperature;BME280_humidity;BME280_pressure;Samples;Min_cycle;Max_cycle;Signal;HPM_P1;HPM_P2
2022/12/15 00:40:03;;;;;;;7.90;5.18;;;;;;;;;;5075266;28;20108;-40
2022/12/15 00:42:29;;;;;;;10.20;5.63;;;;;;;;;;5074760;28;20035;-40
2022/12/15 00:44:55;;;;;;;8.05;4.35;;;;;;;;;;5075128;28;20020;-41
2022/12/15 00:47:20;;;;;;;9.90;4.65;;;;;;;;;;5074780;28;20032;-40
2022/12/15 01:20:17;;;;;;;11.63;5.20;;;;;;;;;;5051807;28;20510;-41
2022/12/15 01:22:44;;;;;;;9.00;4.82;;;;;;;;;;5070692;28;20487;-40
2022/12/15 01:25:09;;;;;;;6.78;4.28;;;;;;;;;;5074275;28;20387;-41
2022/12/15 01:27:35;;;;;;;6.78;4.35;;;;;;;;;;5074064;28;20047;-40
2022/12/15 01:30:00;;;;;;;13.27;4.15;;;;;;;;;;5074342;28;20021;-40
2022/12/15 01:32:26;;;;;;;7.63;3.72;;;;;;;;;;5073726;28;20442;-40
2022/12/15 01:34:52;;;;;;;6.07;3.65;;;;;;;;;;5073937;28;20107;-40
2022/12/15 01:37:17;;;;;;;5.85;3.28;;;;;;;;;;5073772;28;20040;-40
2022/12/15 01:42:27;;;;;;;18.80;10.32;;;;;;;;;;5074059;28;20029;-40
2022/12/15 01:44:53;;;;;;;13.48;6.50;;;;;;;;;;5073768;28;20399;-41
2022/12/15 01:47:21;;;;;;;10.82;6.60;;;;;;;;;;5073834;28;20107;-40
2022/12/15 01:49:47;;;;;;;20.52;7.68;;;;;;;;;;5072912;28;20033;-40
2022/12/15 01:52:13;;;;;;;9.23;4.78;;;;;;;;;;5073865;28;20513;-40
2022/12/15 01:54:45;;;;;;;10.30;5.00;;;;;;;;;;5073437;28;20028;-41
2022/12/15 01:57:13;;;;;;;7.32;4.80;;;;;;;;;;5073568;28;20048;-40
2022/12/15 01:59:42;;;;;;;10.52;4.93;;;;;;;;;;5073474;28;20463;-40
2022/12/15 02:02:09;;;;;;;10.18;6.13;;;;;;;;;;5073365;28;20494;-40
2022/12/15 02:04:36;;;;;;;11.32;5.45;;;;;;;;;;5073409;28;20094;-40
2022/12/15 02:07:02;;;;;;;14.52;7.18;;;;;;;;;;5073213;28;20039;-40
2022/12/15 02:09:27;;;;;;;16.88;6.68;;;;;;;;;;5072004;28;20033;-41
2022/12/15 02:12:19;;;;;;;6.70;4.65;;;;;;;;;;5073289;28;20132;-40
2022/12/15 02:14:44;;;;;;;15.82;7.45;;;;;;;;;;5073170;28;20039;-40
2022/12/15 02:17:16;;;;;;;8.43;5.57;;;;;;;;;;5073277;28;20037;-40
2022/12/15 02:20:00;;;;;;;6.13;4.45;;;;;;;;;;5073169;28;20112;-41
2022/12/15 02:22:28;;;;;;;5.30;3.47;;;;;;;;;;5072812;28;20064;-40
2022/12/15 02:24:54;;;;;;;7.22;4.38;;;;;;;;;;5072986;28;20098;-40
2022/12/15 02:27:37;;;;;;;7.28;4.10;;;;;;;;;;5072855;28;20119;-40
2022/12/15 02:30:21;;;;;;;10.45;5.10;;;;;;;;;;5072893;28;20031;-40
2022/12/15 02:33:19;;;;;;;15.07;7.93;;;;;;;;;;5072868;28;20036;-40
2022/12/15 02:35:48;;;;;;;8.63;6.25;;;;;;;;;;5049298;28;20523;-40
2022/12/15 02:38:14;;;;;;;11.77;6.40;;;;;;;;;;5073028;28;20037;-40
2022/12/15 02:40:39;;;;;;;11.63;7.30;;;;;;;;;;5072648;28;20572;-40
2022/12/15 02:43:05;;;;;;;15.23;7.28;;;;;;;;;;5072585;28;20066;-40
2022/12/15 02:45:39;;;;;;;10.13;5.55;;;;;;;;;;5072459;28;20062;-40
2022/12/15 02:48:07;;;;;;;14.60;5.32;;;;;;;;;;5072810;28;20056;-40
2022/12/15 02:51:05;;;;;;;10.15;6.13;;;;;;;;;;5072383;28;20115;-41
2022/12/15 02:53:36;;;;;;;10.57;6.15;;;;;;;;;;5049107;28;20052;-40
2022/12/15 02:56:22;;;;;;;11.63;5.70;;;;;;;;;;5072182;28;20059;-40
2022/12/15 02:58:58;;;;;;;9.68;5.38;;;;;;;;;;5072296;28;20052;-41
2022/12/15 03:01:31;;;;;;;7.70;4.63;;;;;;;;;;5072008;28;20024;-40
2022/12/15 03:03:56;;;;;;;;;;;;;;;;;;5072786;28;20028;-40
2022/12/15 03:06:23;;;;;;;6.70;4.75;;;;;;;;;;5072146;28;20006;-41
2022/12/15 03:08:49;;;;;;;7.78;3.80;;;;;;;;;;5072157;28;20032;-41
2022/12/15 03:11:14;;;;;;;13.48;7.93;;;;;;;;;;5070671;28;20033;-40
2022/12/15 03:13:39;;;;;;;22.90;9.52;;;;;;;;;;5072277;28;20064;-40
2022/12/15 03:16:05;;;;;;;17.15;8.02;;;;;;;;;;5071894;28;20025;-40
2022/12/15 03:18:30;;;;;;;10.45;5.32;;;;;;;;;;5072090;28;20542;-40
2022/12/15 03:20:56;;;;;;;9.48;5.22;;;;;;;;;;5071971;28;20024;-40
2022/12/15 03:23:21;;;;;;;8.73;4.82;;;;;;;;;;5072015;28;20127;-40
2022/12/15 03:25:47;;;;;;;9.15;4.78;;;;;;;;;;5072128;28;20016;-40
2022/12/15 03:28:12;;;;;;;9.93;3.50;;;;;;;;;;5071747;28;20032;-40
2022/12/15 03:30:38;;;;;;;7.22;4.50;;;;;;;;;;5071723;28;20024;-40
2022/12/15 03:33:03;;;;;;;7.03;4.65;;;;;;;;;;5071859;28;20113;-40
2022/12/15 03:35:29;;;;;;;15.35;5.63;;;;;;;;;;5071837;28;20052;-40
2022/12/15 03:37:54;;;;;;;10.27;5.78;;;;;;;;;;5071646;28;20044;-40
2022/12/15 03:40:20;;;;;;;12.95;4.88;;;;;;;;;;5071812;28;20078;-40
2022/12/15 03:42:48;;;;;;;8.93;4.40;;;;;;;;;;5071508;28;20059;-41
2022/12/15 03:45:14;;;;;;;7.35;4.47;;;;;;;;;;5071514;28;20451;-40
2022/12/15 03:47:40;;;;;;;8.57;4.88;;;;;;;;;;5071667;28;20035;-40
2022/12/15 03:50:06;;;;;;;7.68;4.18;;;;;;;;;;5071793;28;20430;-40
2022/12/15 03:52:31;;;;;;;8.50;3.85;;;;;;;;;;5071432;28;20180;-40
2022/12/15 03:54:56;;;;;;;9.15;4.63;;;;;;;;;;5071253;28;20048;-40
2022/12/15 03:57:22;;;;;;;5.88;4.25;;;;;;;;;;5071449;28;20033;-40
2022/12/15 03:59:47;;;;;;;7.22;3.72;;;;;;;;;;5071359;28;20028;-40
2022/12/15 04:02:12;;;;;;;8.38;3.75;;;;;;;;;;5071270;28;20040;-40
2022/12/15 04:04:38;;;;;;;6.93;4.63;;;;;;;;;;5071674;28;20064;-40
2022/12/15 04:07:03;;;;;;;7.30;3.55;;;;;;;;;;5071585;28;20471;-40
2022/12/15 04:09:28;;;;;;;9.25;3.90;;;;;;;;;;5071195;28;20016;-40
2022/12/15 04:11:54;;;;;;;8.05;4.57;;;;;;;;;;5070825;28;20043;-41
2022/12/15 04:14:19;;;;;;;9.32;4.82;;;;;;;;;;5071058;28;20020;-41
2022/12/15 04:16:45;;;;;;;5.50;3.55;;;;;;;;;;5071380;28;20044;-40
2022/12/15 04:21:54;;;;;;;6.13;3.97;;;;;;;;;;5071515;28;20112;-40
2022/12/15 05:32:35;;;;;;;8.48;3.90;;;;;;;;;;5073914;28;20028;-40
2022/12/15 05:35:00;;;;;;;6.28;3.50;;;;;;;;;;5074067;28;20138;-40
2022/12/15 05:37:25;;;;;;;5.30;3.70;;;;;;;;;;5073756;28;20040;-40
2022/12/15 05:39:51;;;;;;;9.68;4.05;;;;;;;;;;5074136;28;20028;-41
2022/12/15 05:42:16;;;;;;;7.50;3.90;;;;;;;;;;5073983;28;20121;-40
2022/12/15 05:44:42;;;;;;;6.38;3.67;;;;;;;;;;5073831;28;20471;-40
2022/12/15 05:47:08;;;;;;;6.40;4.00;;;;;;;;;;5073795;28;20028;-40
2022/12/15 05:49:34;;;;;;;4.55;3.40;;;;;;;;;;5073863;28;20024;-40
2022/12/15 05:51:59;;;;;;;6.13;2.92;;;;;;;;;;5073641;28;20387;-40
2022/12/15 05:54:25;;;;;;;3.92;3.25;;;;;;;;;;5073744;28;20012;-41
2022/12/15 05:56:50;;;;;;;4.13;2.53;;;;;;;;;;5072022;28;20494;-41
2022/12/15 05:59:16;;;;;;;4.22;3.60;;;;;;;;;;5073537;28;20032;-40
2022/12/15 06:01:41;;;;;;;8.45;3.55;;;;;;;;;;5073513;28;20037;-40
2022/12/15 06:04:08;;;;;;;6.65;3.65;;;;;;;;;;5073623;28;20115;-40
2022/12/15 06:06:33;;;;;;;10.02;3.75;;;;;;;;;;5073368;28;20102;-40
2022/12/15 06:08:59;;;;;;;9.20;3.92;;;;;;;;;;5073304;28;20036;-41
2022/12/15 06:11:25;;;;;;;5.50;3.75;;;;;;;;;;5073217;28;20111;-40
2022/12/15 06:13:51;;;;;;;7.32;3.00;;;;;;;;;;5071959;28;20037;-40
2022/12/15 06:16:18;;;;;;;5.75;4.22;;;;;;;;;;5072906;28;20032;-40
2022/12/15 06:18:45;;;;;;;5.72;3.08;;;;;;;;;;5073541;28;20028;-40
2022/12/15 06:21:12;;;;;;;8.50;3.47;;;;;;;;;;5073390;28;20025;-41
2022/12/15 06:23:38;;;;;;;6.03;3.42;;;;;;;;;;5073183;28;20031;-41
2022/12/15 06:26:19;;;;;;;5.60;3.17;;;;;;;;;;5073054;28;20029;-41
2022/12/15 06:28:45;;;;;;;7.60;4.50;;;;;;;;;;5071677;28;20475;-40
2022/12/15 06:31:11;;;;;;;6.57;4.28;;;;;;;;;;5073209;28;20043;-40
2022/12/15 06:33:37;;;;;;;10.80;4.28;;;;;;;;;;5072976;28;20392;-40
2022/12/15 06:36:06;;;;;;;9.18;3.55;;;;;;;;;;5072321;28;20063;-40
2022/12/15 06:38:32;;;;;;;4.97;3.50;;;;;;;;;;5072779;28;20438;-40
2022/12/15 06:40:58;;;;;;;6.47;3.55;;;;;;;;;;5071613;28;20016;-43
2022/12/15 06:43:25;;;;;;;6.15;3.03;;;;;;;;;;5072534;28;20044;-40
2022/12/15 06:45:50;;;;;;;4.82;3.30;;;;;;;;;;5072584;28;20480;-40
2022/12/15 06:48:16;;;;;;;5.15;3.83;;;;;;;;;;5072598;28;20115;-40
2022/12/15 06:50:42;;;;;;;9.77;3.20;;;;;;;;;;5072714;28;20375;-43
2022/12/15 06:53:08;;;;;;;8.93;3.42;;;;;;;;;;5072623;28;20028;-40
2022/12/15 06:55:33;;;;;;;3.75;3.30;;;;;;;;;;5072293;28;20482;-41
2022/12/15 06:57:59;;;;;;;3.60;2.33;;;;;;;;;;5071060;28;20059;-40
2022/12/15 07:00:26;;;;;;;6.95;3.65;;;;;;;;;;5072163;28;20360;-40
2022/12/15 07:02:52;;;;;;;6.07;4.03;;;;;;;;;;5072172;28;20398;-44
2022/12/15 07:05:18;;;;;;;7.20;3.28;;;;;;;;;;5072080;28;20087;-40
2022/12/15 07:07:44;;;;;;;5.78;3.45;;;;;;;;;;5072206;28;20108;-41
2022/12/15 07:10:10;;;;;;;8.57;4.93;;;;;;;;;;5071970;28;20482;-40
2022/12/15 07:12:35;;;;;;;9.13;4.20;;;;;;;;;;5071923;28;20090;-41
2022/12/15 07:15:01;;;;;;;5.85;3.72;;;;;;;;;;5072262;28;20024;-40
2022/12/15 07:17:27;;;;;;;7.57;4.70;;;;;;;;;;5071888;28;20047;-40
2022/12/15 07:19:52;;;;;;;6.28;3.17;;;;;;;;;;5072116;28;20020;-40
2022/12/15 07:22:20;;;;;;;4.13;2.88;;;;;;;;;;5071481;28;20450;-40
2022/12/15 07:24:46;;;;;;;3.38;2.05;;;;;;;;;;5071949;28;20048;-40
2022/12/15 07:27:11;;;;;;;7.05;2.60;;;;;;;;;;5072090;28;20102;-40
2022/12/15 07:29:37;;;;;;;5.15;2.38;;;;;;;;;;5071656;28;20042;-40
2022/12/15 07:32:02;;;;;;;13.75;4.60;;;;;;;;;;5072017;28;20090;-41
2022/12/15 07:34:28;;;;;;;3.22;2.17;;;;;;;;;;5071523;28;20012;-41
2022/12/15 07:36:54;;;;;;;1.83;1.73;;;;;;;;;;5053664;28;20044;-41
2022/12/15 07:39:20;;;;;;;4.55;2.40;;;;;;;;;;5071581;28;20040;-40
2022/12/15 07:41:45;;;;;;;2.38;1.67;;;;;;;;;;5071792;28;20082;-43
2022/12/15 07:44:13;;;;;;;3.80;2.42;;;;;;;;;;5070309;28;20020;-41
2022/12/15 07:46:39;;;;;;;3.30;2.28;;;;;;;;;;5071038;28;20020;-40
2022/12/15 07:49:04;;;;;;;4.78;2.20;;;;;;;;;;5071509;28;20119;-40
2022/12/15 07:51:29;;;;;;;5.57;3.35;;;;;;;;;;5071451;28;20032;-40
2022/12/15 07:53:55;;;;;;;4.50;2.80;;;;;;;;;;5071400;28;20055;-40
2022/12/15 07:56:20;;;;;;;7.05;3.42;;;;;;;;;;5071174;28;20057;-40
2022/12/15 07:58:45;;;;;;;5.13;2.88;;;;;;;;;;5071425;28;20368;-41
2022/12/15 08:01:12;;;;;;;5.05;3.38;;;;;;;;;;5071721;28;20044;-41
2022/12/15 08:03:38;;;;;;;4.82;3.45;;;;;;;;;;5071435;28;20103;-40
2022/12/15 08:06:07;;;;;;;6.30;3.40;;;;;;;;;;5071269;28;20132;-40
2022/12/15 08:08:32;;;;;;;3.90;2.97;;;;;;;;;;5071559;28;20024;-40
2022/12/15 08:10:58;;;;;;;6.40;2.95;;;;;;;;;;5070882;28;20020;-40
2022/12/15 08:13:23;;;;;;;7.10;3.50;;;;;;;;;;5071186;28;20024;-41
2022/12/15 08:15:53;;;;;;;2.58;2.38;;;;;;;;;;5071275;28;20086;-41
2022/12/15 08:18:19;;;;;;;6.13;4.07;;;;;;;;;;5071175;28;20058;-40
2022/12/15 08:20:44;;;;;;;5.15;3.08;;;;;;;;;;5070017;28;20115;-41
2022/12/15 08:23:10;;;;;;;3.60;2.65;;;;;;;;;;5071191;28;20031;-41
2022/12/15 08:25:35;;;;;;;4.75;2.80;;;;;;;;;;5071048;28;20029;-41
2022/12/15 08:28:01;;;;;;;5.75;2.90;;;;;;;;;;5071195;28;20027;-41
2022/12/15 08:30:26;;;;;;;5.90;3.15;;;;;;;;;;5071072;28;20036;-40
2022/12/15 08:32:52;;;;;;;4.43;2.53;;;;;;;;;;5070994;28;20024;-40
2022/12/15 08:35:17;;;;;;;3.30;2.63;;;;;;;;;;5071093;28;20040;-41
2022/12/15 08:37:42;;;;;;;5.53;1.75;;;;;;;;;;5071150;28;20032;-41
2022/12/15 08:40:08;;;;;;;5.00;2.15;;;;;;;;;;5071029;28;20031;-41
2022/12/15 08:42:34;;;;;;;3.90;2.30;;;;;;;;;;5069518;28;20441;-41
2022/12/15 08:44:59;;;;;;;4.05;2.58;;;;;;;;;;5071314;28;20024;-40
2022/12/15 08:47:25;;;;;;;4.50;2.70;;;;;;;;;;5070877;28;20459;-40
2022/12/15 08:49:53;;;;;;;3.90;2.42;;;;;;;;;;5070851;28;20040;-41
2022/12/15 08:52:18;;;;;;;1.88;1.63;;;;;;;;;;5070787;28;20055;-41
2022/12/15 08:54:44;;;;;;;4.22;2.83;;;;;;;;;;5070846;28;20056;-41
2022/12/15 08:57:09;;;;;;;5.82;4.07;;;;;;;;;;5071204;28;20430;-41
2022/12/15 08:59:35;;;;;;;3.35;2.55;;;;;;;;;;5074155;28;20037;-41
2022/12/15 09:02:00;;;;;;;7.20;2.67;;;;;;;;;;5074520;28;20032;-41
2022/12/15 09:04:26;;;;;;;5.40;2.97;;;;;;;;;;5073239;28;20050;-40
2022/12/15 09:06:51;;;;;;;2.53;2.17;;;;;;;;;;5074500;28;20024;-41
2022/12/15 09:09:16;;;;;;;7.05;2.70;;;;;;;;;;5074736;28;20025;-40
2022/12/15 09:11:42;;;;;;;3.88;2.63;;;;;;;;;;5074396;28;20471;-40
2022/12/15 09:14:07;;;;;;;5.10;2.92;;;;;;;;;;5074278;28;20100;-40
2022/12/15 09:16:32;;;;;;;4.70;3.33;;;;;;;;;;5074500;28;20038;-41
2022/12/15 09:18:58;;;;;;;3.47;2.03;;;;;;;;;;5074636;28;20456;-40
2022/12/15 09:21:25;;;;;;;3.70;2.75;;;;;;;;;;5074373;28;20023;-40
2022/12/15 09:23:52;;;;;;;4.93;2.83;;;;;;;;;;5074479;28;20037;-40
2022/12/15 09:26:18;;;;;;;9.30;2.42;;;;;;;;;;5074330;28;20025;-41
2022/12/15 09:28:44;;;;;;;7.18;3.08;;;;;;;;;;5074042;28;20510;-41
2022/12/15 09:31:11;;;;;;;5.20;2.60;;;;;;;;;;5074083;28;20016;-41
2022/12/15 09:33:37;;;;;;;6.60;2.83;;;;;;;;;;5073905;28;20036;-40
2022/12/15 09:36:03;;;;;;;5.35;3.47;;;;;;;;;;5073938;28;20028;-40
2022/12/15 09:38:29;;;;;;;7.72;3.25;;;;;;;;;;5073863;28;20028;-40
2022/12/15 09:40:55;;;;;;;7.65;3.42;;;;;;;;;;5074000;28;20024;-41
2022/12/15 09:46:05;;;;;;;5.05;2.95;;;;;;;;;;5029236;28;20227;-38
2022/12/15 09:48:43;;;;;;;10.60;4.45;;;;;;;;;;5034282;28;20116;-38
2022/12/15 09:51:11;;;;;;;5.07;2.75;;;;;;;;;;5016306;28;20117;-38
2022/12/15 09:53:36;;;;;;;2.60;2.10;;;;;;;;;;5033950;28;20018;-38
2022/12/15 09:56:05;;;;;;;4.45;2.63;;;;;;;;;;5033808;28;20030;-38
2022/12/15 09:58:31;;;;;;;5.03;1.92;;;;;;;;;;5033597;28;20031;-38
2022/12/15 10:01:17;;;;;;;3.72;2.53;;;;;;;;;;5033674;28;20084;-38
2022/12/15 10:03:48;;;;;;;3.38;2.22;;;;;;;;;;5019628;28;20046;-38
2022/12/15 10:06:17;;;;;;;4.40;2.00;;;;;;;;;;5015703;28;20395;-37
2022/12/15 10:08:45;;;;;;;6.05;3.55;;;;;;;;;;5033486;28;20071;-38
2022/12/15 10:11:29;;;;;;;3.80;2.80;;;;;;;;;;5032653;28;20475;-38
2022/12/15 10:14:27;;;;;;;3.67;2.58;;;;;;;;;;5033276;28;20036;-37
2022/12/15 10:17:10;;;;;;;3.60;1.83;;;;;;;;;;4989165;28;20106;-38
2022/12/15 10:19:38;;;;;;;6.65;3.00;;;;;;;;;;5015476;28;20040;-37
2022/12/15 10:22:04;;;;;;;6.90;3.17;;;;;;;;;;5033301;28;20059;-42
2022/12/15 10:24:32;;;;;;;12.00;4.82;;;;;;;;;;5033613;28;20037;-38
2022/12/15 10:27:12;;;;;;;4.78;2.70;;;;;;;;;;5033066;28;20025;-38
2022/12/15 10:29:45;;;;;;;4.78;3.60;;;;;;;;;;5033078;28;20502;-38
2022/12/15 10:32:18;;;;;;;4.22;2.80;;;;;;;;;;5033176;28;20033;-38
2022/12/15 10:34:44;;;;;;;;;;;;;;;;;;5033411;28;20095;-39
2022/12/15 10:37:13;;;;;;;2.78;1.63;;;;;;;;;;5032993;28;19913;-38
2022/12/15 10:39:39;;;;;;;8.57;4.55;;;;;;;;;;5032901;28;20025;-38
2022/12/15 10:42:22;;;;;;;6.32;3.10;;;;;;;;;;5015054;28;20502;-38
2022/12/15 10:45:10;;;;;;;4.57;2.60;;;;;;;;;;5035438;28;20128;-38
2022/12/15 10:47:35;;;;;;;5.32;2.65;;;;;;;;;;5050251;28;20076;-38
2022/12/15 10:50:20;;;;;;;10.20;2.72;;;;;;;;;;5052754;28;20479;-38
2022/12/15 10:52:45;;;;;;;3.58;2.22;;;;;;;;;;5052570;28;20072;-38
2022/12/15 10:55:46;;;;;;;7.30;2.33;;;;;;;;;;5052542;28;20071;-38
2022/12/15 10:58:16;;;;;;;2.58;2.13;;;;;;;;;;4952110;29;20075;-38
2022/12/15 11:00:41;;;;;;;3.60;3.30;;;;;;;;;;5034464;28;20048;-37
2022/12/15 11:03:23;;;;;;;9.23;4.30;;;;;;;;;;5034555;28;20025;-38
2022/12/15 11:05:55;;;;;;;9.57;4.13;;;;;;;;;;5034428;28;20585;-37
2022/12/15 11:08:22;;;;;;;4.90;2.47;;;;;;;;;;5052369;28;20025;-37
2022/12/15 11:14:01;;;;;;;9.20;2.20;;;;;;;;;;5052196;28;20039;-38
2022/12/15 11:16:27;;;;;;;4.22;2.45;;;;;;;;;;5052368;28;20036;-38
2022/12/15 11:18:57;;;;;;;3.15;2.72;;;;;;;;;;5052069;28;20170;-38
2022/12/15 11:21:31;;;;;;;9.65;2.90;;;;;;;;;;5052070;28;20025;-38
2022/12/15 11:24:12;;;;;;;4.32;2.67;;;;;;;;;;5051955;28;20592;-37
2022/12/15 11:26:37;;;;;;;6.75;3.33;;;;;;;;;;5051846;28;20033;-37
2022/12/15 11:29:12;;;;;;;3.85;2.90;;;;;;;;;;5051984;28;20032;-38
2022/12/15 11:31:39;;;;;;;12.60;3.67;;;;;;;;;;5052238;28;20036;-38
2022/12/15 11:34:10;;;;;;;5.45;3.45;;;;;;;;;;5051916;28;20123;-38
2022/12/15 11:36:42;;;;;;;8.50;2.88;;;;;;;;;;5033710;28;20519;-38
2022/12/15 11:39:15;;;;;;;6.50;2.58;;;;;;;;;;5051953;28;20036;-38
2022/12/15 11:41:44;;;;;;;9.02;3.42;;;;;;;;;;5051988;28;20047;-38
2022/12/15 11:44:18;;;;;;;6.03;3.28;;;;;;;;;;5051676;28;20021;-37
2022/12/15 11:46:47;;;;;;;6.45;2.97;;;;;;;;;;5033592;28;20135;-38
2022/12/15 11:49:12;;;;;;;4.47;2.85;;;;;;;;;;5051688;28;20029;-38
2022/12/15 11:51:41;;;;;;;3.78;2.60;;;;;;;;;;5051516;28;20036;-38
2022/12/15 11:54:09;;;;;;;5.50;3.28;;;;;;;;;;5051567;28;20060;-38
2022/12/15 11:56:38;;;;;;;4.80;2.83;;;;;;;;;;5051354;28;20029;-38
2022/12/15 11:59:21;;;;;;;4.95;2.33;;;;;;;;;;5051546;28;20029;-38
2022/12/15 12:01:53;;;;;;;8.43;3.13;;;;;;;;;;5051706;28;20033;-38
2022/12/15 12:04:23;;;;;;;5.22;3.13;;;;;;;;;;5051643;28;20043;-37
2022/12/15 12:06:58;;;;;;;3.65;2.88;;;;;;;;;;5051295;28;20032;-37
2022/12/15 12:09:32;;;;;;;3.30;2.40;;;;;;;;;;5051574;28;20380;-38
2022/12/15 12:11:58;;;;;;;6.55;2.53;;;;;;;;;;5051329;28;20082;-37
2022/12/15 12:14:42;;;;;;;3.28;1.88;;;;;;;;;;5051226;28;20120;-38
2022/12/15 12:17:13;;;;;;;4.25;3.17;;;;;;;;;;5051170;28;20048;-38
2022/12/15 12:19:48;;;;;;;6.75;2.30;;;;;;;;;;5051556;28;20390;-37
2022/12/15 12:22:16;;;;;;;6.50;2.97;;;;;;;;;;5051237;28;20402;-38
2022/12/15 12:24:49;;;;;;;4.10;2.35;;;;;;;;;;5051394;28;20025;-38
2022/12/15 12:27:52;;;;;;;4.68;2.67;;;;;;;;;;5051255;28;20033;-37
2022/12/15 12:30:22;;;;;;;6.47;2.20;;;;;;;;;;4950911;29;20046;-37
2022/12/15 12:32:47;;;;;;;7.82;2.92;;;;;;;;;;4951394;28;20043;-38
2022/12/15 12:35:15;;;;;;;4.78;2.78;;;;;;;;;;5003429;28;20041;-38
2022/12/15 12:38:01;;;;;;;2.65;1.98;;;;;;;;;;5055043;28;20063;-38
2022/12/15 12:40:27;;;;;;;7.03;3.30;;;;;;;;;;5054707;28;20072;-38
2022/12/15 12:42:56;;;;;;;3.38;2.20;;;;;;;;;;5055030;28;20060;-38
2022/12/15 12:45:28;;;;;;;8.25;3.17;;;;;;;;;;5054925;28;20045;-38
2022/12/15 12:47:56;;;;;;;5.10;3.30;;;;;;;;;;5055010;28;20486;-38
2022/12/15 12:50:23;;;;;;;5.00;2.97;;;;;;;;;;5054897;28;20746;-38
2022/12/15 12:52:59;;;;;;;5.35;3.97;;;;;;;;;;5055080;28;20033;-38
2022/12/15 12:55:27;;;;;;;6.15;3.35;;;;;;;;;;5055090;28;20387;-39
2022/12/15 12:57:53;;;;;;;6.53;4.00;;;;;;;;;;5054690;28;20040;-38
2022/12/15 13:00:23;;;;;;;6.13;3.10;;;;;;;;;;5054696;28;20033;-38
2022/12/15 13:02:51;;;;;;;7.35;3.22;;;;;;;;;;5054569;28;20036;-38
2022/12/15 13:05:22;;;;;;;3.40;2.72;;;;;;;;;;5054612;28;20027;-38
2022/12/15 13:08:05;;;;;;;5.88;3.08;;;;;;;;;;5054816;28;20033;-38
2022/12/15 13:10:32;;;;;;;4.35;3.20;;;;;;;;;;5054534;28;20028;-38
2022/12/15 13:13:18;;;;;;;6.20;3.47;;;;;;;;;;5054519;28;20032;-38
2022/12/15 13:15:45;;;;;;;4.22;3.30;;;;;;;;;;5037095;28;20175;-38
2022/12/15 13:18:14;;;;;;;13.80;5.95;;;;;;;;;;5054451;28;20076;-38
2022/12/15 13:20:40;;;;;;;6.88;4.03;;;;;;;;;;5054626;28;20063;-38
2022/12/15 13:23:18;;;;;;;8.18;3.53;;;;;;;;;;5036502;28;20036;-38
2022/12/15 13:25:44;;;;;;;8.88;5.35;;;;;;;;;;5054083;28;20719;-38
2022/12/15 13:28:23;;;;;;;6.75;4.38;;;;;;;;;;5054390;28;20029;-37
2022/12/15 13:31:08;;;;;;;4.63;3.53;;;;;;;;;;5054380;28;20466;-37
2022/12/15 13:33:43;;;;;;;7.22;4.10;;;;;;;;;;5054458;28;20044;-38
2022/12/15 13:36:09;;;;;;;8.65;5.07;;;;;;;;;;5054072;28;20517;-38
2022/12/15 13:38:53;;;;;;;6.07;3.17;;;;;;;;;;5054061;28;20028;-37
2022/12/15 13:41:22;;;;;;;6.10;3.97;;;;;;;;;;5054101;28;20479;-38
2022/12/15 13:43:50;;;;;;;5.63;4.13;;;;;;;;;;5053837;28;20032;-37
2022/12/15 13:46:20;;;;;;;7.30;4.28;;;;;;;;;;5052875;28;20041;-38
2022/12/15 13:48:50;;;;;;;9.30;4.35;;;;;;;;;;5054116;28;20033;-38
2022/12/15 13:51:31;;;;;;;4.95;3.47;;;;;;;;;;5054148;28;20449;-38
2022/12/15 13:53:58;;;;;;;4.68;3.13;;;;;;;;;;5053655;28;20501;-38
2022/12/15 13:56:43;;;;;;;5.30;2.97;;;;;;;;;;5053866;28;20029;-40
2022/12/15 13:59:32;;;;;;;11.57;4.32;;;;;;;;;;5053991;28;20036;-38
2022/12/15 14:01:57;;;;;;;11.60;4.95;;;;;;;;;;5040222;28;20037;-38
2022/12/15 14:04:23;;;;;;;9.82;4.60;;;;;;;;;;5053658;28;20191;-37
2022/12/15 14:06:48;;;;;;;7.07;4.55;;;;;;;;;;5053432;28;20502;-38
2022/12/15 14:09:15;;;;;;;4.93;3.22;;;;;;;;;;5035609;28;20387;-37
2022/12/15 14:11:42;;;;;;;4.47;3.08;;;;;;;;;;5053429;28;20035;-38
2022/12/15 14:14:15;;;;;;;5.18;3.42;;;;;;;;;;5053436;28;20032;-38
2022/12/15 14:16:44;;;;;;;5.05;2.83;;;;;;;;;;5053226;28;20067;-38
2022/12/15 14:19:09;;;;;;;3.63;2.53;;;;;;;;;;5053389;28;20021;-38
2022/12/15 14:21:36;;;;;;;4.90;2.90;;;;;;;;;;5053166;28;20558;-38
2022/12/15 14:24:01;;;;;;;5.38;2.78;;;;;;;;;;5053161;28;20029;-39
2022/12/15 14:26:29;;;;;;;5.57;3.13;;;;;;;;;;5053382;28;20044;-38
2022/12/15 14:29:03;;;;;;;4.25;2.22;;;;;;;;;;5053009;28;20021;-37
2022/12/15 14:31:28;;;;;;;6.10;3.30;;;;;;;;;;5035314;28;20112;-37
2022/12/15 14:34:20;;;;;;;2.47;2.20;;;;;;;;;;5053252;28;20104;-38
2022/12/15 14:36:46;;;;;;;3.63;2.85;;;;;;;;;;5047965;28;20714;-38
2022/12/15 14:39:24;;;;;;;5.70;3.78;;;;;;;;;;5034712;28;20037;-38
2022/12/15 14:41:50;;;;;;;3.53;2.83;;;;;;;;;;5052779;28;20029;-38
2022/12/15 14:44:35;;;;;;;4.80;3.20;;;;;;;;;;5052823;28;20029;-38
2022/12/15 14:47:04;;;;;;;3.47;2.65;;;;;;;;;;5052424;28;20065;-38
2022/12/15 14:49:41;;;;;;;5.30;3.08;;;;;;;;;;5052744;28;20491;-38
2022/12/15 14:52:16;;;;;;;5.80;3.65;;;;;;;;;;5052732;28;20025;-38
2022/12/15 14:54:49;;;;;;;4.60;3.00;;;;;;;;;;5052415;28;20535;-38
2022/12/15 14:57:20;;;;;;;9.05;4.95;;;;;;;;;;5052158;28;20048;-38
2022/12/15 14:59:50;;;;;;;5.28;3.20;;;;;;;;;;5052393;28;20105;-38
2022/12/15 15:02:28;;;;;;;4.03;2.28;;;;;;;;;;5052391;28;20502;-38
2022/12/15 15:05:17;;;;;;;7.72;3.40;;;;;;;;;;5052231;28;20425;-38
2022/12/15 15:07:44;;;;;;;2.85;1.80;;;;;;;;;;5051223;28;20032;-38
2022/12/15 15:10:21;;;;;;;2.67;2.00;;;;;;;;;;5052233;28;20521;-39
2022/12/15 15:12:47;;;;;;;4.53;1.67;;;;;;;;;;5052422;28;20033;-38
2022/12/15 15:15:15;;;;;;;5.75;2.13;;;;;;;;;;5052073;28;20525;-38
2022/12/15 15:17:50;;;;;;;13.18;2.95;;;;;;;;;;5052089;28;20072;-38
2022/12/15 15:20:29;;;;;;;3.92;3.00;;;;;;;;;;5052447;28;20060;-38
2022/12/15 15:23:07;;;;;;;2.90;1.90;;;;;;;;;;5051969;28;20029;-38
2022/12/15 15:25:32;;;;;;;3.47;2.30;;;;;;;;;;5051930;28;20036;-37
2022/12/15 15:28:01;;;;;;;3.92;2.85;;;;;;;;;;5051881;28;20021;-38
2022/12/15 15:30:27;;;;;;;2.53;2.10;;;;;;;;;;5051827;28;20025;-38
2022/12/15 15:32:56;;;;;;;3.10;1.90;;;;;;;;;;5051888;28;20033;-37
2022/12/15 15:35:23;;;;;;;4.80;3.13;;;;;;;;;;5051823;28;20028;-38
2022/12/15 15:37:49;;;;;;;10.77;2.00;;;;;;;;;;5051587;28;20029;-38
2022/12/15 15:40:15;;;;;;;4.63;2.60;;;;;;;;;;5033863;28;20017;-38
2022/12/15 15:42:42;;;;;;;6.07;2.35;;;;;;;;;;5051766;28;20375;-38
2022/12/15 15:45:13;;;;;;;3.88;2.40;;;;;;;;;;5051580;28;20110;-38
2022/12/15 15:47:41;;;;;;;5.43;2.67;;;;;;;;;;5033973;28;20029;-38
2022/12/15 15:50:10;;;;;;;10.25;3.35;;;;;;;;;;5051929;28;20121;-38
2022/12/15 15:52:36;;;;;;;4.85;3.08;;;;;;;;;;5051573;28;20392;-38
2022/12/15 15:55:02;;;;;;;6.07;3.28;;;;;;;;;;5051526;28;20078;-38
2022/12/15 15:57:28;;;;;;;2.58;1.80;;;;;;;;;;5051447;28;20045;-38
2022/12/15 15:59:53;;;;;;;7.18;2.53;;;;;;;;;;5051392;28;20041;-38
2022/12/15 16:02:19;;;;;;;4.57;2.63;;;;;;;;;;5051487;28;20505;-38
2022/12/15 16:04:44;;;;;;;5.07;3.22;;;;;;;;;;5051248;28;20821;-39
2022/12/15 16:07:23;;;;;;;4.55;1.95;;;;;;;;;;5050979;28;20550;-39
2022/12/15 16:09:49;;;;;;;4.13;3.10;;;;;;;;;;5051236;28;20581;-38
2022/12/15 16:12:37;;;;;;;4.72;2.42;;;;;;;;;;5051245;28;20116;-38
2022/12/15 16:15:08;;;;;;;2.40;2.20;;;;;;;;;;5038174;28;20044;-37
2022/12/15 16:17:34;;;;;;;6.63;2.65;;;;;;;;;;5051119;28;20074;-38
2022/12/15 16:19:59;;;;;;;5.35;2.75;;;;;;;;;;5051372;28;20025;-38
2022/12/15 16:22:25;;;;;;;3.53;2.80;;;;;;;;;;5051249;28;20383;-37
2022/12/15 16:24:50;;;;;;;2.78;2.22;;;;;;;;;;5051178;28;20052;-38
2022/12/15 16:27:16;;;;;;;4.60;3.17;;;;;;;;;;5051387;28;20520;-37
2022/12/15 16:29:41;;;;;;;2.47;1.75;;;;;;;;;;5051245;28;20021;-38
2022/12/15 16:32:08;;;;;;;5.18;2.90;;;;;;;;;;5051061;28;20044;-37
2022/12/15 16:34:35;;;;;;;6.20;2.20;;;;;;;;;;5050956;28;20458;-38
2022/12/15 16:37:01;;;;;;;5.40;2.60;;;;;;;;;;5050946;28;20041;-38
2022/12/15 16:39:29;;;;;;;4.32;3.33;;;;;;;;;;5051101;28;20024;-38
2022/12/15 16:41:55;;;;;;;4.07;2.20;;;;;;;;;;5033463;28;20339;-38
2022/12/15 16:44:21;;;;;;;6.20;2.42;;;;;;;;;;5051045;28;20056;-38
2022/12/15 16:46:46;;;;;;;2.83;2.28;;;;;;;;;;5050786;28;20045;-38
2022/12/15 16:49:12;;;;;;;5.97;2.67;;;;;;;;;;5050954;28;20087;-38
2022/12/15 16:51:38;;;;;;;3.97;2.67;;;;;;;;;;5050877;28;20497;-38
2022/12/15 16:54:04;;;;;;;3.53;1.75;;;;;;;;;;5050780;28;20048;-37
2022/12/15 16:56:29;;;;;;;5.13;2.70;;;;;;;;;;5050843;28;20029;-37
2022/12/15 16:58:55;;;;;;;2.70;1.98;;;;;;;;;;5051021;28;20424;-37
2022/12/15 17:01:21;;;;;;;3.90;2.20;;;;;;;;;;5050865;28;20025;-38
2022/12/15 17:03:47;;;;;;;3.65;2.40;;;;;;;;;;5050741;28;20091;-37
2022/12/15 17:06:14;;;;;;;5.07;2.92;;;;;;;;;;5050806;28;20059;-37
2022/12/15 17:08:42;;;;;;;6.40;2.00;;;;;;;;;;5016367;28;20422;-38
2022/12/15 17:11:15;;;;;;;6.28;3.10;;;;;;;;;;5050970;28;20074;-38
2022/12/15 17:13:42;;;;;;;8.15;2.97;;;;;;;;;;5050726;28;20033;-37
2022/12/15 17:16:10;;;;;;;4.85;2.85;;;;;;;;;;5050885;28;20020;-37
2022/12/15 17:18:35;;;;;;;5.63;3.45;;;;;;;;;;5033124;28;20041;-37
2022/12/15 17:21:15;;;;;;;2.83;2.38;;;;;;;;;;5054331;28;20028;-37
2022/12/15 17:23:43;;;;;;;3.67;2.65;;;;;;;;;;5054587;28;20033;-37